Time;durP1;ratioP1;P1;durP2;ratioP2;P2;SDS_P1;SDS_P2;PMS_P1;PMS_P2;Temp;Humidity;BMP_temperature;BMP_pressure;BME280_temperature;BME280_humidity;BME280_pressure;Samples;Min_cycle;Max_cycle;Signal;HPM_P1;HPM_P2
2024/01/21 00:01:03;;;;;;;8.40;5.63;;;-6.60;99.90;;;-6.00;100.00;99239.09;5038240;28;20464;-81
2024/01/21 00:03:31;;;;;;;7.83;4.97;;;-6.60;99.90;;;-6.04;100.00;99245.22;5038739;28;20476;-81
2024/01/21 00:06:00;;;;;;;4.73;3.60;;;-6.50;99.90;;;-6.16;100.00;99243.09;5040063;28;20477;-81
2024/01/21 00:08:29;;;;;;;14.33;4.33;;;-6.80;99.90;;;-6.21;100.00;99255.97;5039764;28;20447;-80
2024/01/21 00:10:58;;;;;;;12.47;4.10;;;-6.80;99.90;;;-6.25;100.00;99258.69;5041806;28;20944;-81
2024/01/21 00:13:28;;;;;;;9.17;4.47;;;-6.90;99.90;;;-6.22;100.00;99256.03;5041724;28;20428;-81
2024/01/21 00:15:57;;;;;;;9.70;3.87;;;-6.90;99.90;;;-6.24;100.00;99252.69;5037957;28;20436;-81
2024/01/21 00:18:25;;;;;;;10.83;4.50;;;-6.90;99.90;;;-6.25;100.00;99245.97;5040796;28;20440;-81
2024/01/21 00:20:54;;;;;;;5.90;3.57;;;-6.90;99.90;;;-6.26;100.00;99250.22;5040623;28;20499;-80
2024/01/21 00:23:23;;;;;;;5.57;3.30;;;-6.80;99.90;;;-6.30;100.00;99251.19;5039080;28;20440;-81
2024/01/21 00:25:52;;;;;;;7.07;3.63;;;-6.90;99.90;;;-6.34;100.00;99251.34;5037182;28;20464;-82
2024/01/21 00:28:20;;;;;;;4.80;2.30;;;-6.80;99.90;;;-6.41;100.00;99255.81;5041965;28;20473;-81
2024/01/21 00:30:51;;;;;;;9.73;4.83;;;-6.70;99.90;;;-6.52;100.00;99254.50;5040404;28;20433;-81
2024/01/21 00:33:21;;;;;;;9.57;4.97;;;-6.90;99.90;;;-6.51;100.00;99253.63;5039148;28;20685;-81
2024/01/21 00:35:50;;;;;;;5.23;3.00;;;-7.10;99.90;;;-6.51;100.00;99239.22;5038585;28;20469;-81
2024/01/21 00:38:19;;;;;;;11.30;3.70;;;-7.10;99.90;;;-6.53;100.00;99250.31;5038214;28;20497;-81
2024/01/21 00:40:47;;;;;;;6.17;4.50;;;-7.10;99.90;;;-6.52;100.00;99246.88;5041553;28;20440;-81
2024/01/21 00:43:16;;;;;;;9.83;3.40;;;-7.10;99.90;;;-6.60;100.00;99243.78;5039288;28;20831;-81
2024/01/21 00:45:45;;;;;;;7.80;4.50;;;-7.20;99.90;;;-6.68;100.00;99252.50;5035684;28;20945;-81
2024/01/21 00:48:15;;;;;;;9.30;4.67;;;-7.40;99.90;;;-6.63;100.00;99250.63;5038240;28;20570;-81
2024/01/21 00:50:44;;;;;;;12.70;4.83;;;-7.20;99.90;;;-6.67;100.00;99241.47;5039368;28;20592;-81
2024/01/21 00:53:13;;;;;;;19.77;5.57;;;-7.30;99.90;;;-6.65;100.00;99243.94;5039808;28;20796;-81
2024/01/21 00:55:42;;;;;;;6.57;4.10;;;-7.30;99.90;;;-6.71;100.00;99247.53;5038487;28;21042;-81
2024/01/21 00:58:11;;;;;;;7.20;5.00;;;-7.30;99.90;;;-6.71;100.00;99244.97;5039014;28;20495;-81
2024/01/21 01:00:39;;;;;;;6.63;3.50;;;-7.30;99.90;;;-6.70;100.00;99240.72;5037279;28;20496;-81
2024/01/21 01:03:08;;;;;;;7.80;4.50;;;-7.30;99.90;;;-6.75;100.00;99229.88;5035671;28;20446;-81
2024/01/21 01:05:38;;;;;;;8.17;4.17;;;-7.30;99.90;;;-6.77;100.00;99229.09;5040637;28;20473;-81
2024/01/21 01:08:07;;;;;;;8.20;4.53;;;-7.30;99.90;;;-6.72;100.00;99234.84;5040515;28;20817;-82
2024/01/21 01:10:35;;;;;;;5.17;3.00;;;-7.20;99.90;;;-6.74;100.00;99231.53;5037715;28;20449;-81
2024/01/21 01:13:04;;;;;;;4.57;3.70;;;-7.30;99.90;;;-6.74;100.00;99232.38;5040476;28;20596;-81
2024/01/21 01:15:33;;;;;;;5.97;3.30;;;-7.30;99.90;;;-6.75;100.00;99225.63;5037200;28;21068;-81
2024/01/21 01:18:02;;;;;;;7.80;3.87;;;-7.30;99.90;;;-6.75;100.00;99220.53;5040123;28;20468;-81
2024/01/21 01:20:30;;;;;;;12.23;5.97;;;-7.20;99.90;;;-6.74;100.00;99216.28;5038038;28;20469;-81
2024/01/21 01:23:01;;;;;;;8.03;4.23;;;-7.30;99.90;;;-6.77;100.00;99222.28;5037157;28;20543;-81
2024/01/21 01:25:29;;;;;;;8.03;4.47;;;-7.30;99.90;;;-6.74;100.00;99211.19;5039592;28;20533;-81
2024/01/21 01:27:58;;;;;;;7.17;4.40;;;-7.30;99.90;;;-6.81;100.00;99208.03;5043965;28;20450;-81
2024/01/21 01:30:27;;;;;;;9.63;4.90;;;-7.50;99.90;;;-6.78;100.00;99199.47;5036666;28;20583;-81
2024/01/21 01:32:55;;;;;;;6.63;4.03;;;-7.40;99.90;;;-6.76;100.00;99203.59;5039230;28;20445;-81
2024/01/21 01:35:25;;;;;;;4.30;3.33;;;-7.30;99.90;;;-6.76;100.00;99192.59;5035992;28;20993;-81
2024/01/21 01:37:54;;;;;;;6.90;4.43;;;-7.20;99.90;;;-6.76;100.00;99193.44;5038818;28;20472;-81
2024/01/21 01:40:24;;;;;;;6.73;4.07;;;-7.30;99.90;;;-6.76;100.00;99193.44;5035011;28;20445;-81
2024/01/21 01:42:57;;;;;;;5.57;4.10;;;-7.30;99.90;;;-6.77;100.00;99186.69;5039446;28;20756;-81
2024/01/21 01:45:26;;;;;;;6.90;3.67;;;-7.30;99.90;;;-6.78;100.00;99185.06;5033367;28;20436;-81
2024/01/21 01:47:55;;;;;;;14.03;5.93;;;-7.30;99.90;;;-6.79;100.00;99185.91;5038570;28;21361;-81
2024/01/21 01:50:24;;;;;;;11.87;4.20;;;-7.30;99.90;;;-6.82;100.00;99188.56;5040454;28;20466;-81
2024/01/21 01:52:53;;;;;;;15.23;5.83;;;-7.20;99.90;;;-6.86;100.00;99186.19;5036422;28;20476;-81
2024/01/21 01:55:24;;;;;;;15.37;4.17;;;-7.20;99.90;;;-6.82;100.00;99191.13;5036541;28;20646;-81
2024/01/21 01:57:52;;;;;;;11.87;5.20;;;-7.10;99.90;;;-6.83;100.00;99186.06;5038488;28;21011;-81
2024/01/21 02:00:22;;;;;;;10.57;5.20;;;-7.10;99.90;;;-6.93;100.00;99180.47;5036522;28;20446;-81
2024/01/21 02:02:52;;;;;;;8.63;4.97;;;-7.10;99.90;;;-6.96;100.00;99183.13;5036886;28;20902;-81
2024/01/21 02:05:21;;;;;;;13.37;6.47;;;-7.00;99.90;;;-7.13;100.00;99187.91;5037473;28;20840;-81
2024/01/21 02:07:50;;;;;;;9.03;4.27;;;-7.30;99.90;;;-7.15;100.00;99179.53;5037662;28;20472;-81
2024/01/21 02:10:18;;;;;;;7.80;3.90;;;-7.30;99.90;;;-7.21;100.00;99172.09;5037798;28;20452;-81
2024/01/21 02:12:51;;;;;;;11.13;4.80;;;-7.50;99.90;;;-7.22;100.00;99175.53;5033240;28;20433;-82
2024/01/21 02:15:20;;;;;;;8.90;5.53;;;-7.50;99.90;;;-7.21;100.00;99169.53;5036435;28;21023;-81
2024/01/21 02:17:49;;;;;;;7.80;4.40;;;-7.30;99.90;;;-7.26;100.00;99171.41;5038271;28;20486;-81
2024/01/21 02:20:18;;;;;;;16.53;4.53;;;-7.60;99.90;;;-7.28;100.00;99163.84;5037907;28;21044;-81
2024/01/21 02:22:47;;;;;;;11.73;4.90;;;-7.50;99.90;;;-7.38;100.00;99154.84;5036184;28;20827;-81
2024/01/21 02:25:18;;;;;;;20.03;6.03;;;-7.70;99.90;;;-7.44;100.00;99156.75;5035641;28;20469;-81
2024/01/21 02:27:46;;;;;;;6.90;4.47;;;-7.70;99.90;;;-7.44;100.00;99147.44;5039357;28;20468;-81
2024/01/21 02:30:15;;;;;;;17.73;4.83;;;-7.70;99.90;;;-7.45;100.00;99143.22;5036455;28;20439;-81
2024/01/21 02:32:44;;;;;;;9.20;4.67;;;-7.60;99.90;;;-7.44;100.00;99144.06;5037178;28;20517;-81
2024/01/21 02:35:12;;;;;;;12.50;6.00;;;-7.70;99.90;;;-7.44;100.00;99146.59;5037270;28;20511;-81
2024/01/21 02:37:42;;;;;;;11.80;4.60;;;-7.70;99.90;;;-7.45;100.00;99139.84;5041899;28;20463;-82
2024/01/21 02:40:11;;;;;;;12.10;4.90;;;-7.80;99.90;;;-7.42;100.00;99134.69;5036121;28;20523;-81
2024/01/21 02:42:41;;;;;;;6.30;3.90;;;-7.70;99.90;;;-7.40;100.00;99138.84;5036732;28;20440;-81
2024/01/21 02:45:10;;;;;;;8.10;3.73;;;-7.80;99.90;;;-7.36;100.00;99130.25;5034095;28;21014;-81
2024/01/21 02:47:39;;;;;;;10.97;4.90;;;-7.70;99.90;;;-7.35;100.00;99143.75;5038630;28;20450;-81
2024/01/21 02:50:09;;;;;;;8.23;4.07;;;-7.70;99.90;;;-7.36;100.00;99131.97;5035930;28;20443;-80
2024/01/21 02:52:37;;;;;;;3.77;3.10;;;-7.70;99.90;;;-7.40;100.00;99143.09;5019681;28;20885;-81
2024/01/21 02:55:07;;;;;;;5.20;3.60;;;-7.80;99.90;;;-7.41;100.00;99133.81;5036922;28;21054;-81
2024/01/21 02:57:35;;;;;;;9.57;5.97;;;-7.70;99.90;;;-7.38;100.00;99132.00;5037627;28;20915;-81
2024/01/21 03:00:07;;;;;;;7.70;4.13;;;-7.80;99.90;;;-7.36;100.00;99130.25;5034499;28;20900;-81
2024/01/21 03:02:37;;;;;;;8.23;4.93;;;-7.80;99.90;;;-7.37;100.00;99135.38;5036072;28;20440;-81
2024/01/21 03:05:07;;;;;;;5.90;3.43;;;-7.90;99.90;;;-7.37;100.00;99138.75;5037873;28;20906;-81
2024/01/21 03:07:35;;;;;;;8.23;2.93;;;-7.90;99.90;;;-7.36;100.00;99134.50;5038247;28;21014;-81
2024/01/21 03:10:05;;;;;;;4.80;3.07;;;-7.90;99.90;;;-7.37;100.00;99128.59;5042965;28;20498;-81
2024/01/21 03:12:36;;;;;;;5.23;4.13;;;-7.90;99.90;;;-7.35;100.00;99136.13;5042831;28;20478;-82
2024/01/21 03:15:07;;;;;;;4.10;2.83;;;-7.90;99.90;;;-7.41;100.00;99128.72;5043282;28;20467;-81
2024/01/21 03:17:36;;;;;;;5.93;3.03;;;-8.00;99.90;;;-7.38;100.00;99133.69;5043299;28;20513;-81
2024/01/21 03:20:06;;;;;;;6.83;3.47;;;-8.00;99.90;;;-7.39;100.00;99130.31;5043095;28;20863;-82
2024/01/21 03:22:35;;;;;;;9.17;4.13;;;-8.00;99.90;;;-7.42;100.00;99129.59;5044378;28;20440;-82
2024/01/21 03:25:04;;;;;;;10.13;3.60;;;-8.00;99.90;;;-7.50;100.00;99131.56;5041641;28;20933;-82
2024/01/21 03:27:33;;;;;;;8.87;5.43;;;-8.10;99.90;;;-7.53;100.00;99118.97;5042326;28;20442;-82
2024/01/21 03:30:01;;;;;;;6.77;4.00;;;-8.10;99.90;;;-7.51;100.00;99119.75;5042251;28;20521;-81
2024/01/21 03:32:31;;;;;;;14.80;4.57;;;-8.10;99.90;;;-7.51;100.00;99119.75;5040510;28;20477;-82
2024/01/21 03:35:00;;;;;;;8.40;4.67;;;-8.10;99.90;;;-7.58;100.00;99119.13;5043013;28;20490;-81
2024/01/21 03:37:29;;;;;;;7.97;4.87;;;-8.00;99.90;;;-7.51;100.00;99120.59;5043733;28;20477;-80
2024/01/21 03:39:57;;;;;;;8.20;5.20;;;-8.00;99.90;;;-7.49;100.00;99123.06;5041983;28;20434;-82
2024/01/21 03:42:26;;;;;;;12.77;4.80;;;-8.00;99.90;;;-7.47;100.00;99126.38;5042650;28;20447;-81
2024/01/21 03:44:54;;;;;;;13.40;6.47;;;-8.00;99.90;;;-7.48;100.00;99119.66;5042310;28;20459;-81
2024/01/21 03:47:23;;;;;;;12.27;6.10;;;-8.00;99.90;;;-7.51;100.00;99129.91;5042589;28;20441;-82
2024/01/21 03:49:53;;;;;;;9.50;5.23;;;-8.10;99.90;;;-7.59;100.00;99136.91;5043519;28;20982;-81
2024/01/21 03:52:22;;;;;;;13.27;5.63;;;-8.20;99.90;;;-7.68;100.00;99133.81;5044407;28;20447;-81
2024/01/21 03:54:50;;;;;;;16.93;6.20;;;-8.30;99.90;;;-7.70;100.00;99138.09;5044456;28;20538;-82
2024/01/21 03:57:19;;;;;;;13.57;5.30;;;-8.30;99.90;;;-7.67;100.00;99139.72;5044355;28;20686;-81
2024/01/21 03:59:51;;;;;;;10.53;6.07;;;-8.30;99.90;;;-7.61;100.00;99136.16;5042897;28;20441;-81
2024/01/21 04:02:22;;;;;;;14.67;4.10;;;-8.20;99.90;;;-7.60;100.00;99136.09;5041555;28;20549;-82
2024/01/21 04:04:53;;;;;;;15.90;6.83;;;-8.20;99.90;;;-7.64;100.00;99137.09;5043159;28;20469;-82
2024/01/21 04:07:22;;;;;;;12.33;6.10;;;-8.20;99.90;;;-7.69;100.00;99141.47;5044247;28;20461;-81
2024/01/21 04:09:50;;;;;;;7.57;4.70;;;-8.30;99.90;;;-7.80;100.00;99144.31;5040917;28;20461;-82
2024/01/21 04:12:19;;;;;;;13.73;5.87;;;-8.40;99.90;;;-7.78;100.00;99146.81;5041072;28;20468;-81
2024/01/21 04:14:48;;;;;;;17.17;5.50;;;-8.40;99.90;;;-7.74;100.00;99141.59;5045184;28;20475;-81
2024/01/21 04:17:17;;;;;;;10.17;5.23;;;-8.30;99.90;;;-7.82;100.00;99141.00;5042622;28;20586;-81
2024/01/21 04:19:46;;;;;;;14.37;5.67;;;-8.30;99.90;;;-7.81;100.00;99137.56;5043327;28;20968;-81
2024/01/21 04:22:18;;;;;;;12.03;4.53;;;-8.40;99.90;;;-7.86;100.00;99131.81;5038544;28;20446;-82
2024/01/21 04:24:47;;;;;;;10.83;4.27;;;-8.40;99.90;;;-7.94;100.00;99123.59;5038882;28;20465;-81
2024/01/21 04:27:16;;;;;;;13.93;4.40;;;-8.50;99.90;;;-7.99;100.00;99114.50;5036728;28;20475;-81
2024/01/21 04:29:45;;;;;;;8.80;4.33;;;-8.60;99.90;;;-7.99;100.00;99102.63;5041043;28;20666;-82
2024/01/21 04:32:14;;;;;;;6.33;3.80;;;-8.60;99.90;;;-7.94;100.00;99097.41;5036492;28;20983;-81
2024/01/21 04:34:42;;;;;;;4.50;3.17;;;-8.50;99.90;;;-7.97;100.00;99092.44;5038484;28;20948;-81
2024/01/21 04:37:11;;;;;;;3.70;3.30;;;-8.60;99.90;;;-7.96;100.00;99100.00;5040340;28;20926;-82
2024/01/21 04:39:41;;;;;;;8.57;3.70;;;-8.50;99.90;;;-7.96;100.00;99097.47;5040775;28;20197;-81
2024/01/21 04:42:10;;;;;;;8.30;3.80;;;-8.50;99.90;;;-7.98;100.00;99099.22;5038270;28;20983;-82
2024/01/21 04:44:38;;;;;;;7.60;2.97;;;-8.60;99.90;;;-7.99;100.00;99097.56;5037178;28;20451;-82
2024/01/21 04:47:07;;;;;;;8.13;4.10;;;-8.50;99.90;;;-8.02;100.00;99091.75;5038584;28;20735;-81
2024/01/21 04:49:35;;;;;;;4.67;3.00;;;-8.60;99.90;;;-8.07;100.00;99094.41;5039119;28;20967;-82
2024/01/21 04:52:05;;;;;;;7.25;3.85;;;-8.60;99.90;;;-8.11;100.00;99087.78;5038322;28;20498;-82
2024/01/21 04:54:34;;;;;;;11.13;5.27;;;-8.70;99.90;;;-8.24;100.00;99081.41;5041444;28;20755;-81
2024/01/21 04:57:04;;;;;;;11.13;3.20;;;-8.90;99.90;;;-8.21;100.00;99081.31;5042390;28;21016;-82
2024/01/21 04:59:33;;;;;;;13.20;4.27;;;-8.70;99.90;;;-8.15;100.00;99081.13;5039529;28;20265;-82
2024/01/21 05:02:02;;;;;;;6.63;3.57;;;-8.70;99.90;;;-8.16;100.00;99070.16;5037664;28;21009;-81
2024/01/21 05:04:30;;;;;;;9.57;5.70;;;-8.70;99.90;;;-8.16;100.00;99064.28;5040751;28;20466;-81
2024/01/21 05:06:59;;;;;;;15.97;4.10;;;-8.70;99.90;;;-8.18;100.00;99061.78;5036714;28;21590;-82
2024/01/21 05:09:28;;;;;;;6.18;3.78;;;-8.70;99.90;;;-8.19;100.00;99064.38;5035326;28;20505;-81
2024/01/21 05:11:57;;;;;;;6.57;4.18;;;-8.70;99.90;;;-8.17;100.00;99060.06;5039150;28;20212;-82
2024/01/21 05:14:27;;;;;;;11.03;4.80;;;-8.70;99.90;;;-8.23;100.00;99063.63;5038925;28;20299;-81
2024/01/21 05:16:56;;;;;;;6.40;3.72;;;-8.80;99.90;;;-8.22;100.00;99066.97;5038167;28;20491;-81
2024/01/21 05:19:25;;;;;;;6.38;4.00;;;-8.80;99.90;;;-8.19;100.00;99065.19;5038068;28;20204;-82
2024/01/21 05:21:53;;;;;;;4.38;3.50;;;-8.80;99.90;;;-8.20;100.00;99066.06;5036228;28;20212;-82
2024/01/21 05:24:22;;;;;;;7.63;4.35;;;-8.80;99.90;;;-8.19;100.00;99060.09;5039172;28;20216;-81
2024/01/21 05:26:51;;;;;;;8.70;3.45;;;-8.70;99.90;;;-8.20;100.00;99057.63;5038292;28;20270;-82
2024/01/21 05:29:19;;;;;;;4.73;3.70;;;-8.80;99.90;;;-8.20;100.00;99066.06;5036408;28;20215;-82
2024/01/21 05:31:49;;;;;;;6.77;3.97;;;-8.80;99.90;;;-8.21;100.00;99073.72;5036641;28;21050;-81
2024/01/21 05:34:18;;;;;;;7.90;3.90;;;-8.80;99.90;;;-8.31;100.00;99074.91;5038427;28;20477;-81
2024/01/21 05:36:47;;;;;;;8.80;4.20;;;-8.90;99.90;;;-8.27;100.00;99081.50;5039183;28;21577;-81
2024/01/21 05:39:16;;;;;;;9.80;4.47;;;-8.80;99.90;;;-8.22;100.00;99074.59;5039279;28;20519;-81
2024/01/21 05:41:44;;;;;;;5.40;3.30;;;-8.60;99.90;;;-8.25;100.00;99069.59;5035575;28;20200;-81
2024/01/21 05:44:13;;;;;;;4.93;3.58;;;-8.80;99.90;;;-8.24;100.00;99063.66;5035515;28;20866;-81
2024/01/21 05:46:42;;;;;;;6.97;3.73;;;-8.80;99.90;;;-8.27;100.00;99073.91;5035878;28;20998;-81
2024/01/21 05:49:13;;;;;;;10.05;4.78;;;-8.80;99.90;;;-8.28;100.00;99067.19;5040434;28;20467;-82
2024/01/21 05:51:42;;;;;;;8.32;4.05;;;-8.80;99.90;;;-8.27;100.00;99069.66;5030057;28;20218;-78
2024/01/21 05:54:10;;;;;;;8.83;3.83;;;-8.80;99.90;;;-8.25;100.00;99077.22;5033336;28;20202;-82
2024/01/21 05:56:39;;;;;;;6.00;3.60;;;-8.80;99.90;;;-8.28;100.00;99095.09;5033563;28;20654;-83
2024/01/21 05:59:07;;;;;;;7.20;3.60;;;-8.80;99.90;;;-8.24;100.00;99104.25;5035948;28;20728;-81
2024/01/21 06:01:35;;;;;;;9.13;3.63;;;-8.80;99.90;;;-8.18;100.00;99088.84;5032285;28;20203;-82
2024/01/21 06:04:04;;;;;;;11.10;3.70;;;-8.70;99.90;;;-8.16;100.00;99074.41;5034710;28;20964;-82
2024/01/21 06:06:35;;;;;;;8.02;4.50;;;-8.60;99.90;;;-8.11;100.00;99067.47;5035683;28;20956;-83
2024/01/21 06:09:03;;;;;;;8.00;4.60;;;-8.60;99.90;;;-8.06;100.00;99058.03;5038838;28;20293;-78
2024/01/21 06:11:32;;;;;;;9.57;4.03;;;-8.60;99.90;;;-8.08;100.00;99052.16;5041346;28;20471;-83
2024/01/21 06:14:01;;;;;;;6.80;3.60;;;-8.60;99.90;;;-8.06;100.00;99049.59;5038846;28;20787;-82
2024/01/21 06:16:29;;;;;;;8.57;4.07;;;-8.70;99.90;;;-8.06;100.00;99047.91;5039705;28;20517;-82
2024/01/21 06:18:58;;;;;;;8.97;4.67;;;-8.60;99.90;;;-8.03;100.00;99041.88;5037278;28;20460;-83
2024/01/21 06:21:26;;;;;;;6.80;4.23;;;-8.60;99.90;;;-7.97;100.00;99050.13;5039504;28;20479;-82
2024/01/21 06:23:57;;;;;;;6.75;3.67;;;-8.50;99.90;;;-7.95;100.00;99047.56;5037578;28;20474;-82
2024/01/21 06:26:26;;;;;;;6.37;4.20;;;-8.40;99.90;;;-7.94;100.00;99050.03;5036890;28;20212;-82
2024/01/21 06:28:55;;;;;;;7.83;4.37;;;-8.40;99.90;;;-7.87;100.00;99051.50;5037422;28;20471;-82
2024/01/21 06:31:24;;;;;;;7.30;4.47;;;-8.30;99.90;;;-7.82;100.00;99056.44;5036941;28;20477;-81
2024/01/21 06:33:52;;;;;;;9.43;3.67;;;-8.30;99.90;;;-7.83;100.00;99053.06;5037917;28;20460;-82
2024/01/21 06:36:22;;;;;;;12.80;4.40;;;-8.20;99.90;;;-7.82;100.00;99051.38;5037180;28;20584;-81
2024/01/21 06:38:51;;;;;;;5.27;3.47;;;-8.30;99.90;;;-7.78;100.00;99055.47;5040676;28;20227;-81
2024/01/21 06:41:22;;;;;;;15.70;5.40;;;-8.20;99.90;;;-7.75;100.00;99055.38;5039194;28;21073;-81
2024/01/21 06:43:50;;;;;;;10.77;3.80;;;-8.20;99.90;;;-7.73;100.00;99059.50;5037352;28;20438;-80
2024/01/21 06:46:19;;;;;;;6.00;3.60;;;-8.20;99.90;;;-7.70;100.00;99059.41;5040435;28;20471;-81
2024/01/21 06:48:47;;;;;;;6.67;3.70;;;-8.20;99.90;;;-7.66;100.00;99057.59;5033075;28;20212;-81
2024/01/21 06:51:31;;;;;;;8.87;3.93;;;-8.20;99.90;;;-7.65;100.00;99047.41;5036552;28;20593;-81
2024/01/21 06:54:00;;;;;;;5.30;3.07;;;-8.20;99.90;;;-7.63;100.00;99065.94;5035093;28;20932;-81
2024/01/21 06:56:30;;;;;;;5.47;3.30;;;-8.20;99.90;;;-7.70;100.00;99073.81;5031679;28;20497;-80
2024/01/21 06:58:58;;;;;;;12.80;4.87;;;-8.10;99.90;;;-7.63;100.00;99076.09;5035653;28;20857;-80
2024/01/21 07:01:27;;;;;;;5.00;4.00;;;-8.10;99.90;;;-7.65;100.00;99090.56;5034637;28;20835;-82
2024/01/21 07:03:56;;;;;;;10.33;4.93;;;-8.20;99.90;;;-7.58;100.00;99082.75;5035954;28;20464;-83
2024/01/21 07:06:25;;;;;;;10.40;4.07;;;-8.10;99.90;;;-7.52;100.00;99077.47;5035020;28;20835;-76
2024/01/21 07:08:53;;;;;;;4.93;3.90;;;-8.00;99.90;;;-7.50;100.00;99071.47;5030389;28;20836;-84
2024/01/21 07:11:22;;;;;;;8.57;4.43;;;-8.00;99.90;;;-7.53;100.00;99075.81;5034818;28;20528;-82
2024/01/21 07:13:52;;;;;;;10.00;3.80;;;-8.10;99.90;;;-7.51;100.00;99082.50;5031878;28;20975;-81
2024/01/21 07:16:21;;;;;;;10.33;3.93;;;-8.00;99.90;;;-7.45;100.00;99084.00;5035700;28;20944;-82
2024/01/21 07:18:49;;;;;;;4.87;3.90;;;-7.90;99.90;;;-7.43;100.00;99087.34;5035516;28;20497;-81
2024/01/21 07:21:18;;;;;;;10.20;4.53;;;-7.90;99.90;;;-7.40;100.00;99079.59;5034238;28;20455;-81
2024/01/21 07:23:47;;;;;;;7.17;4.70;;;-7.90;99.90;;;-7.38;100.00;99076.13;5034260;28;20446;-81
2024/01/21 07:26:16;;;;;;;10.60;5.10;;;-7.90;99.90;;;-7.32;100.00;99075.91;5032354;28;20448;-81
2024/01/21 07:28:44;;;;;;;9.93;3.13;;;-7.90;99.90;;;-7.32;100.00;99070.84;5033473;28;20446;-82
2024/01/21 07:31:15;;;;;;;6.70;4.00;;;-7.80;99.90;;;-7.35;100.00;99067.56;5029883;28;20553;-82
2024/01/21 07:33:44;;;;;;;6.30;3.60;;;-7.90;99.90;;;-7.30;100.00;99070.81;5039310;28;20463;-79
2024/01/21 07:36:13;;;;;;;8.73;4.43;;;-7.90;99.90;;;-7.27;100.00;99068.16;5036851;28;20479;-82
2024/01/21 07:38:42;;;;;;;10.47;3.80;;;-7.90;99.90;;;-7.24;100.00;99065.50;5037888;28;21008;-81
2024/01/21 07:41:12;;;;;;;7.77;4.23;;;-7.80;99.90;;;-7.20;100.00;99065.34;5037766;28;20451;-82
2024/01/21 07:43:42;;;;;;;10.27;4.60;;;-7.80;99.90;;;-7.17;100.00;99064.41;5036269;28;21183;-82
2024/01/21 07:46:10;;;;;;;11.53;5.00;;;-7.80;99.90;;;-7.10;100.00;99059.94;5035662;28;21005;-82
2024/01/21 07:48:41;;;;;;;7.37;4.27;;;-7.70;99.90;;;-7.05;100.00;99051.31;5036452;28;20959;-82
2024/01/21 07:51:10;;;;;;;6.20;3.77;;;-7.60;99.90;;;-6.98;100.00;99055.28;5037472;28;20463;-82
2024/01/21 07:53:38;;;;;;;8.10;4.20;;;-7.60;99.90;;;-6.91;100.00;99051.66;5038031;28;20474;-82
2024/01/21 07:56:07;;;;;;;13.10;4.40;;;-7.50;99.90;;;-6.91;100.00;99049.13;5039036;28;20519;-81
2024/01/21 07:58:36;;;;;;;13.30;4.50;;;-7.50;99.90;;;-6.83;100.00;99024.22;5038776;28;20499;-81
2024/01/21 08:01:07;;;;;;;11.63;4.00;;;-7.40;99.90;;;-6.77;100.00;99026.53;5040547;28;21030;-80
2024/01/21 08:03:36;;;;;;;8.30;4.30;;;-7.30;99.90;;;-6.69;100.00;99044.06;5045622;28;20501;-81
2024/01/21 08:06:08;;;;;;;10.40;5.40;;;-7.20;99.90;;;-6.66;100.00;99054.94;5041616;28;20464;-81
2024/01/21 08:08:37;;;;;;;5.83;4.50;;;-7.20;99.90;;;-6.57;100.00;99045.34;5040692;28;20817;-81
2024/01/21 08:11:05;;;;;;;8.10;5.53;;;-7.00;99.90;;;-6.50;100.00;99054.41;5038970;28;20434;-81
2024/01/21 08:13:34;;;;;;;10.87;4.80;;;-6.90;99.90;;;-6.43;100.00;99063.47;5039722;28;20767;-82
2024/01/21 08:16:03;;;;;;;6.63;5.20;;;-6.80;99.90;;;-6.37;100.00;99068.31;5040977;28;21034;-81
2024/01/21 08:18:32;;;;;;;10.93;5.90;;;-6.80;99.90;;;-6.33;100.00;99057.16;5046147;28;20916;-82
2024/01/21 08:21:07;;;;;;;8.73;4.87;;;-6.80;99.90;;;-6.25;100.00;99063.59;5039978;28;20433;-81
2024/01/21 08:23:36;;;;;;;18.60;6.67;;;-6.70;99.90;;;-6.20;100.00;99058.31;5042936;28;20431;-80
2024/01/21 08:26:05;;;;;;;7.30;4.60;;;-6.70;99.90;;;-6.15;100.00;99064.91;5038756;28;20464;-81
2024/01/21 08:28:34;;;;;;;11.83;6.83;;;-6.60;99.90;;;-6.09;100.00;99063.00;5037482;28;20934;-82
2024/01/21 08:31:03;;;;;;;10.67;6.73;;;-6.50;99.90;;;-6.06;100.00;99062.88;5040337;28;20433;-82
2024/01/21 08:33:35;;;;;;;13.10;6.33;;;-6.50;99.90;;;-5.97;100.00;99070.19;5037267;28;21017;-81
2024/01/21 08:36:06;;;;;;;12.57;5.77;;;-6.50;99.90;;;-5.93;100.00;99075.09;5038879;28;20899;-82
2024/01/21 08:38:36;;;;;;;11.53;7.53;;;-6.40;99.90;;;-5.92;100.00;99081.00;5036325;28;20495;-77
2024/01/21 08:41:05;;;;;;;19.23;6.10;;;-6.40;99.90;;;-5.85;100.00;99078.13;5037963;28;20819;-82
2024/01/21 08:43:33;;;;;;;14.47;5.90;;;-6.30;99.90;;;-5.76;100.00;99062.47;5035885;28;21040;-81
2024/01/21 08:46:03;;;;;;;12.50;6.17;;;-6.30;99.90;;;-5.71;100.00;99052.13;5037000;28;20600;-82
2024/01/21 08:48:32;;;;;;;9.10;5.23;;;-6.20;99.90;;;-5.66;100.00;99061.22;5035293;28;20470;-81
2024/01/21 08:51:01;;;;;;;13.87;6.97;;;-6.20;99.90;;;-5.60;100.00;99060.16;5040975;28;20448;-82
2024/01/21 08:53:31;;;;;;;13.37;5.67;;;-6.10;99.90;;;-5.52;100.00;99064.97;5040526;28;21122;-82
2024/01/21 08:56:01;;;;;;;9.70;5.77;;;-6.00;99.90;;;-5.46;100.00;99070.63;5040601;28;20496;-81
2024/01/21 08:58:30;;;;;;;14.20;6.33;;;-5.90;99.90;;;-5.36;100.00;99065.97;5038289;28;20521;-82
2024/01/21 09:00:58;;;;;;;11.87;6.57;;;-5.90;99.90;;;-5.29;100.00;99055.47;5039148;28;20432;-82
2024/01/21 09:03:27;;;;;;;13.63;7.40;;;-5.80;99.90;;;-5.23;100.00;99056.91;5034505;28;20879;-84
2024/01/21 09:05:56;;;;;;;20.13;6.90;;;-5.80;99.90;;;-5.17;100.00;99066.88;5038338;28;20826;-84
2024/01/21 09:08:24;;;;;;;12.40;6.23;;;-5.70;99.90;;;-5.10;100.00;99120.06;5037741;28;20444;-82
2024/01/21 09:10:54;;;;;;;15.50;7.70;;;-5.60;99.90;;;-5.01;100.00;99123.13;5040167;28;20436;-82
2024/01/21 09:13:23;;;;;;;16.03;7.13;;;-5.50;99.90;;;-4.96;100.00;99114.38;5038553;28;20508;-81
2024/01/21 09:15:52;;;;;;;18.37;6.93;;;-5.30;99.90;;;-4.88;100.00;99125.09;5038953;28;20432;-83
2024/01/21 09:18:20;;;;;;;9.00;5.73;;;-5.20;99.90;;;-4.78;100.00;99151.88;5038542;28;20547;-76
2024/01/21 09:20:49;;;;;;;33.23;13.57;;;-5.10;99.90;;;-4.70;100.00;99175.34;5038177;28;20443;-84
2024/01/21 09:23:18;;;;;;;17.33;7.87;;;-5.10;99.90;;;-4.63;100.00;99186.94;5041763;28;20485;-85
2024/01/21 09:25:47;;;;;;;15.27;7.27;;;-5.00;99.90;;;-4.54;100.00;99184.88;5038923;28;20464;-84
2024/01/21 09:28:18;;;;;;;18.20;7.60;;;-5.00;99.90;;;-4.46;100.00;99190.50;5038618;28;20468;-84
2024/01/21 09:30:47;;;;;;;11.47;6.97;;;-4.80;99.90;;;-4.39;100.00;99197.84;5039242;28;20433;-84
2024/01/21 09:33:17;;;;;;;12.33;6.67;;;-4.70;99.90;;;-4.32;100.00;99183.91;5035454;28;21224;-85
2024/01/21 09:35:46;;;;;;;15.13;7.10;;;-4.70;99.90;;;-4.24;100.00;99168.25;5039426;28;20471;-79
2024/01/21 09:38:18;;;;;;;19.87;12.13;;;-4.60;99.90;;;-4.19;100.00;99171.44;5040124;28;20468;-83
2024/01/21 09:40:58;;;;;;;16.97;7.70;;;-4.60;99.90;;;-4.15;100.00;99157.63;5038137;28;21067;-81
2024/01/21 09:43:31;;;;;;;11.50;7.47;;;-4.50;99.90;;;-4.10;100.00;99141.22;5036159;28;20441;-82
2024/01/21 09:46:02;;;;;;;15.87;7.70;;;-4.50;99.90;;;-4.07;100.00;99161.53;5037504;28;20466;-83
2024/01/21 09:48:31;;;;;;;13.30;7.40;;;-4.40;99.90;;;-4.05;100.00;99179.31;5038708;28;20806;-81
2024/01/21 09:51:01;;;;;;;9.50;4.97;;;-4.20;99.90;;;-3.97;100.00;99207.91;5042413;28;20458;-82
2024/01/21 09:53:30;;;;;;;14.70;6.40;;;-4.20;99.90;;;-3.90;100.00;99186.28;5038923;28;20482;-83
2024/01/21 09:56:08;;;;;;;10.17;6.50;;;-4.10;99.90;;;-3.84;100.00;99203.06;5032063;28;20871;-82
2024/01/21 09:58:49;;;;;;;12.93;6.63;;;-4.10;99.90;;;-3.87;100.00;99188.72;5038384;28;20473;-83
2024/01/21 10:01:19;;;;;;;16.37;7.63;;;-4.10;99.90;;;-3.84;100.00;99170.69;5032448;28;20962;-82
2024/01/21 10:03:48;;;;;;;10.40;6.00;;;-4.10;99.90;;;-3.84;100.00;99152.81;5037704;28;20462;-79
2024/01/21 10:06:19;;;;;;;12.03;6.33;;;-4.20;99.90;;;-3.86;100.00;99139.28;5036224;28;21089;-83
2024/01/21 10:08:49;;;;;;;11.73;7.27;;;-4.20;99.90;;;-3.84;100.00;99131.53;5036232;28;20464;-81
2024/01/21 10:11:18;;;;;;;20.00;9.13;;;-4.20;99.90;;;-3.84;100.00;99123.88;5037777;28;20491;-84
2024/01/21 10:13:48;;;;;;;15.70;7.23;;;-4.10;99.90;;;-3.77;100.00;99136.28;5038825;28;20468;-87
2024/01/21 10:16:17;;;;;;;16.53;7.10;;;-4.10;99.90;;;-3.72;100.00;99129.25;5034875;28;20478;-85
2024/01/21 10:18:48;;;;;;;17.30;7.80;;;-4.00;99.90;;;-3.64;100.00;99134.00;5037380;28;20454;-84